Time;durP1;ratioP1;P1;durP2;ratioP2;P2;SDS_P1;SDS_P2;PMS_P1;PMS_P2;Temp;Humidity;BMP_temperature;BMP_pressure;BME280_temperature;BME280_humidity;BME280_pressure;Samples;Min_cycle;Max_cycle;Signal;HPM_P1;HPM_P2
2020/12/30 00:01:24;;;;;;;7.03;3.90;;;17.50;56.40;;;;;;5105013;28;20259;-61
2020/12/30 00:03:50;;;;;;;7.05;4.00;;;17.50;56.30;;;;;;5100213;28;20257;-62
2020/12/30 00:06:19;;;;;;;6.32;4.43;;;17.50;56.40;;;;;;5084234;28;20216;-61
2020/12/30 00:08:48;;;;;;;4.25;3.45;;;17.50;56.40;;;;;;5084783;28;20172;-61
2020/12/30 00:11:15;;;;;;;5.93;4.40;;;17.50;56.40;;;;;;5084601;28;20205;-62
2020/12/30 00:13:41;;;;;;;6.65;4.65;;;17.50;56.40;;;;;;5084353;28;20698;-62
2020/12/30 00:16:06;;;;;;;4.90;4.35;;;17.50;56.80;;;;;;5084336;28;20266;-62
2020/12/30 00:18:32;;;;;;;6.80;3.88;;;17.40;56.50;;;;;;5084516;28;20623;-62
2020/12/30 00:20:58;;;;;;;4.95;4.20;;;17.40;56.50;;;;;;5084591;28;20274;-62
2020/12/30 00:23:24;;;;;;;7.40;4.10;;;17.40;56.50;;;;;;5066823;28;20209;-62
2020/12/30 00:25:50;;;;;;;4.40;4.00;;;17.40;56.50;;;;;;5084101;28;20201;-62
2020/12/30 00:28:16;;;;;;;8.48;3.80;;;17.30;56.40;;;;;;5084351;28;20178;-61
2020/12/30 00:30:41;;;;;;;6.28;3.83;;;17.30;56.40;;;;;;5084161;28;20180;-61
2020/12/30 00:33:07;;;;;;;5.65;4.10;;;17.30;56.40;;;;;;5084335;28;20180;-61
2020/12/30 00:35:32;;;;;;;6.78;4.18;;;17.20;56.30;;;;;;5084458;28;20263;-61
2020/12/30 00:37:58;;;;;;;6.70;4.03;;;17.20;56.40;;;;;;5084545;28;20261;-61
2020/12/30 00:40:24;;;;;;;4.82;3.97;;;17.20;56.30;;;;;;5084109;28;20631;-62
2020/12/30 00:42:49;;;;;;;4.72;3.78;;;17.20;56.30;;;;;;5066067;28;20557;-63
2020/12/30 00:45:15;;;;;;;4.85;4.07;;;17.10;56.90;;;;;;5083698;28;20209;-62
2020/12/30 00:47:40;;;;;;;5.05;3.97;;;17.20;56.30;;;;;;5084200;28;20177;-62
2020/12/30 00:50:06;;;;;;;4.53;3.83;;;17.10;56.30;;;;;;5084218;28;21030;-62
2020/12/30 00:52:32;;;;;;;5.47;4.13;;;17.10;56.20;;;;;;5084062;28;21049;-62
2020/12/30 00:54:57;;;;;;;5.55;4.30;;;17.10;56.20;;;;;;5084084;28;21006;-62
2020/12/30 00:57:23;;;;;;;4.82;4.20;;;17.10;56.20;;;;;;5083832;28;20627;-61
2020/12/30 00:59:49;;;;;;;5.57;4.00;;;17.00;56.10;;;;;;5084159;28;20624;-61
2020/12/30 01:02:14;;;;;;;5.00;4.28;;;17.00;56.10;;;;;;5085180;28;20181;-61
2020/12/30 01:04:41;;;;;;;4.75;3.90;;;17.00;56.10;;;;;;5088010;28;20332;-61
2020/12/30 01:07:07;;;;;;;5.13;4.10;;;17.00;56.10;;;;;;5069739;28;20631;-61
2020/12/30 01:09:32;;;;;;;5.65;4.38;;;17.00;56.10;;;;;;5087832;28;20280;-61
2020/12/30 01:12:02;;;;;;;4.57;4.05;;;17.00;56.10;;;;;;5087891;28;20173;-61
2020/12/30 01:14:28;;;;;;;4.90;4.03;;;17.00;56.00;;;;;;5087755;28;20178;-62
2020/12/30 01:16:53;;;;;;;5.18;4.07;;;17.00;56.00;;;;;;5087487;28;20178;-62
2020/12/30 01:19:20;;;;;;;5.50;4.05;;;16.90;56.00;;;;;;5087726;28;20184;-63
2020/12/30 01:21:45;;;;;;;4.72;3.88;;;16.90;56.00;;;;;;5087826;28;20173;-62
2020/12/30 01:24:11;;;;;;;6.38;4.53;;;16.90;55.90;;;;;;5087319;28;20201;-61
2020/12/30 01:26:37;;;;;;;4.35;3.90;;;16.90;55.90;;;;;;5087395;28;20206;-61
2020/12/30 01:29:03;;;;;;;5.55;4.28;;;16.90;55.90;;;;;;5087609;28;20178;-60
2020/12/30 01:31:29;;;;;;;4.85;4.25;;;16.80;55.90;;;;;;5087401;28;20188;-61
2020/12/30 01:33:55;;;;;;;5.07;4.43;;;16.80;55.90;;;;;;5087596;28;20532;-59
2020/12/30 01:36:21;;;;;;;5.65;3.85;;;16.80;55.80;;;;;;5087332;28;20182;-61
2020/12/30 01:38:47;;;;;;;5.50;3.35;;;16.80;55.80;;;;;;5087132;28;20280;-61
2020/12/30 01:41:13;;;;;;;4.43;3.97;;;16.80;55.90;;;;;;5069247;28;20166;-61
2020/12/30 01:43:38;;;;;;;4.72;3.95;;;16.80;55.90;;;;;;5087173;28;20247;-62
2020/12/30 01:46:04;;;;;;;6.00;4.10;;;16.70;55.80;;;;;;5087077;28;20721;-62
2020/12/30 01:48:29;;;;;;;5.18;4.00;;;16.70;55.80;;;;;;5087113;28;20545;-61
2020/12/30 01:50:55;;;;;;;5.57;4.38;;;16.70;55.80;;;;;;5087066;28;20173;-61
2020/12/30 01:53:20;;;;;;;5.10;4.38;;;16.80;55.80;;;;;;5086847;28;20209;-61
2020/12/30 01:55:46;;;;;;;5.80;4.05;;;16.70;55.80;;;;;;5086747;28;20213;-60
2020/12/30 01:58:12;;;;;;;4.78;4.38;;;16.70;55.70;;;;;;5087025;28;20602;-60
2020/12/30 02:00:39;;;;;;;4.43;4.03;;;16.70;55.70;;;;;;5069009;28;20614;-60
2020/12/30 02:03:05;;;;;;;5.55;4.13;;;16.70;55.70;;;;;;5087148;28;20165;-61
2020/12/30 02:05:31;;;;;;;4.00;3.47;;;16.70;55.70;;;;;;5086736;28;20193;-59
2020/12/30 02:07:58;;;;;;;6.63;4.35;;;16.60;55.70;;;;;;5086119;28;20193;-61
2020/12/30 02:10:25;;;;;;;4.40;4.00;;;16.60;55.60;;;;;;5086658;28;20194;-61
2020/12/30 02:12:50;;;;;;;4.68;4.22;;;16.60;55.60;;;;;;5068593;28;20169;-61
2020/12/30 02:15:29;;;;;;;4.90;3.90;;;16.60;55.60;;;;;;5086186;28;20188;-60
2020/12/30 02:17:55;;;;;;;4.72;4.20;;;16.60;55.60;;;;;;5086752;28;20623;-61
2020/12/30 02:20:21;;;;;;;5.03;4.28;;;16.60;56.30;;;;;;5086363;28;20180;-62
2020/12/30 02:22:57;;;;;;;4.18;3.78;;;16.60;55.60;;;;;;5080544;28;20364;-61
2020/12/30 02:25:23;;;;;;;7.32;4.63;;;16.60;55.50;;;;;;5069507;28;20221;-62
2020/12/30 02:27:49;;;;;;;4.43;3.97;;;16.60;55.50;;;;;;5086475;28;20170;-60
2020/12/30 02:30:14;;;;;;;4.40;4.00;;;16.60;55.60;;;;;;5086697;28;20170;-60
2020/12/30 02:32:40;;;;;;;4.20;3.80;;;16.60;55.60;;;;;;5068408;28;20166;-61
2020/12/30 02:35:05;;;;;;;5.10;4.20;;;16.60;55.60;;;;;;5086218;28;20174;-61
2020/12/30 02:37:31;;;;;;;5.20;4.65;;;16.50;55.50;;;;;;5086099;28;20174;-62
2020/12/30 02:39:56;;;;;;;4.25;3.85;;;16.50;55.50;;;;;;5086317;28;20196;-61
2020/12/30 02:42:22;;;;;;;4.95;3.97;;;16.60;55.50;;;;;;5086214;28;20253;-61
2020/12/30 02:44:48;;;;;;;5.25;4.75;;;16.50;55.40;;;;;;5086193;28;20205;-61
2020/12/30 02:47:14;;;;;;;4.90;4.45;;;16.50;55.40;;;;;;5068006;28;20573;-62
2020/12/30 02:49:39;;;;;;;4.57;4.18;;;16.50;55.40;;;;;;5085714;28;20173;-62
2020/12/30 02:52:05;;;;;;;4.35;4.03;;;16.40;55.40;;;;;;5085797;28;21014;-61
2020/12/30 02:54:30;;;;;;;4.57;4.18;;;16.50;55.40;;;;;;5085629;28;20682;-60
2020/12/30 02:56:56;;;;;;;4.10;3.70;;;16.50;55.40;;;;;;5086001;28;20178;-58
2020/12/30 02:59:21;;;;;;;4.45;4.07;;;16.50;55.40;;;;;;5085689;28;20208;-61
2020/12/30 03:01:47;;;;;;;4.63;4.22;;;16.40;55.30;;;;;;5067686;28;20720;-60
2020/12/30 03:04:12;;;;;;;4.68;4.10;;;16.40;55.30;;;;;;5085613;28;20697;-60
2020/12/30 03:06:38;;;;;;;5.38;4.28;;;16.40;55.30;;;;;;5085449;28;20611;-60
2020/12/30 03:09:04;;;;;;;4.82;3.50;;;16.40;55.30;;;;;;5085789;28;20281;-59
2020/12/30 03:11:29;;;;;;;5.53;4.25;;;16.40;55.30;;;;;;5085670;28;20208;-62
2020/12/30 03:13:55;;;;;;;4.97;4.28;;;16.40;55.30;;;;;;5085756;28;20631;-60
2020/12/30 03:16:20;;;;;;;4.70;4.13;;;16.40;55.30;;;;;;5085196;28;20623;-62
2020/12/30 03:18:47;;;;;;;4.35;3.97;;;16.40;55.20;;;;;;5067274;28;20252;-63
2020/12/30 03:21:12;;;;;;;4.43;4.03;;;16.40;55.20;;;;;;5085330;28;20182;-61
2020/12/30 03:23:38;;;;;;;4.50;4.00;;;16.40;55.30;;;;;;5085263;28;20623;-61
2020/12/30 03:26:03;;;;;;;4.93;4.43;;;16.30;55.20;;;;;;5084032;28;20598;-59
2020/12/30 03:28:29;;;;;;;4.32;3.88;;;16.40;55.30;;;;;;5085311;28;20224;-61
2020/12/30 03:30:55;;;;;;;4.93;4.43;;;16.30;55.20;;;;;;5085196;28;20623;-59
2020/12/30 03:33:20;;;;;;;4.00;3.65;;;16.30;55.20;;;;;;5085210;28;20170;-59
2020/12/30 03:35:46;;;;;;;4.35;3.95;;;16.30;55.20;;;;;;5084781;28;20174;-60
2020/12/30 03:38:11;;;;;;;4.43;4.03;;;16.30;55.20;;;;;;5084865;28;20174;-61
2020/12/30 03:40:37;;;;;;;4.55;4.15;;;16.30;55.20;;;;;;5084919;28;20199;-60
2020/12/30 03:43:02;;;;;;;4.43;4.07;;;16.30;55.20;;;;;;5084962;28;20716;-62
2020/12/30 03:45:28;;;;;;;5.00;4.60;;;16.20;55.10;;;;;;5084894;28;20228;-61
2020/12/30 03:47:53;;;;;;;4.68;4.28;;;16.30;55.20;;;;;;5067077;28;20181;-61
2020/12/30 03:50:19;;;;;;;4.82;4.20;;;16.20;55.20;;;;;;5084901;28;20174;-61
2020/12/30 03:52:44;;;;;;;4.50;4.10;;;16.20;55.10;;;;;;5084670;28;20174;-61
2020/12/30 03:55:10;;;;;;;4.75;4.35;;;16.20;55.10;;;;;;5084692;28;20222;-61
2020/12/30 03:57:35;;;;;;;5.60;4.60;;;16.20;55.10;;;;;;5084926;28;20181;-61
2020/12/30 04:00:01;;;;;;;4.78;4.32;;;16.20;55.10;;;;;;5084962;28;20688;-60
2020/12/30 04:02:27;;;;;;;4.95;4.55;;;16.20;55.10;;;;;;5084716;28;20707;-59
2020/12/30 04:04:52;;;;;;;5.13;4.15;;;16.20;55.10;;;;;;5065958;28;20185;-60
2020/12/30 04:07:18;;;;;;;4.20;3.80;;;16.20;55.10;;;;;;5084684;28;20213;-62
2020/12/30 04:09:43;;;;;;;4.72;4.30;;;16.20;55.10;;;;;;5084664;28;20631;-61
2020/12/30 04:12:09;;;;;;;5.25;4.70;;;16.20;55.10;;;;;;5084801;28;20367;-61
2020/12/30 04:14:34;;;;;;;5.03;4.20;;;16.20;55.10;;;;;;5084252;28;20174;-62
2020/12/30 04:17:00;;;;;;;4.78;4.38;;;16.20;55.10;;;;;;5084100;28;20192;-58
2020/12/30 04:19:25;;;;;;;4.82;4.38;;;16.20;55.10;;;;;;5084295;28;20196;-62
2020/12/30 04:21:51;;;;;;;4.40;4.00;;;16.20;55.10;;;;;;5084214;28;20217;-61
2020/12/30 04:24:16;;;;;;;4.90;4.43;;;16.10;55.00;;;;;;5084276;28;20181;-61
2020/12/30 04:26:42;;;;;;;5.15;4.72;;;16.10;55.10;;;;;;5084112;28;21048;-61
2020/12/30 04:29:08;;;;;;;4.57;4.18;;;16.10;55.00;;;;;;5084040;28;20181;-60
2020/12/30 04:31:35;;;;;;;4.50;4.00;;;16.10;55.00;;;;;;5084282;28;20187;-59
2020/12/30 04:34:01;;;;;;;4.68;4.28;;;16.10;55.00;;;;;;5084088;28;20198;-60
2020/12/30 04:36:26;;;;;;;5.05;4.55;;;16.10;55.00;;;;;;5083963;28;20220;-61
2020/12/30 04:38:52;;;;;;;4.28;3.95;;;16.10;55.10;;;;;;5083974;28;20189;-61
2020/12/30 04:41:17;;;;;;;4.95;4.53;;;16.10;55.00;;;;;;5084209;28;20173;-61
2020/12/30 04:43:44;;;;;;;4.72;4.32;;;16.10;55.00;;;;;;5066050;28;20173;-61
2020/12/30 04:46:13;;;;;;;4.97;4.47;;;16.10;55.00;;;;;;5083929;28;20646;-61
2020/12/30 04:48:39;;;;;;;4.50;4.10;;;16.10;55.00;;;;;;5084005;28;20501;-61
2020/12/30 04:51:05;;;;;;;4.60;4.20;;;16.10;55.00;;;;;;5084222;28;20643;-62
2020/12/30 04:53:30;;;;;;;4.43;4.03;;;16.10;55.10;;;;;;5083933;28;20230;-62
2020/12/30 04:55:59;;;;;;;4.82;4.43;;;16.00;55.00;;;;;;5083867;28;20184;-60
2020/12/30 04:58:29;;;;;;;4.60;4.18;;;16.10;55.10;;;;;;5066044;28;20174;-61
2020/12/30 05:00:55;;;;;;;4.85;4.40;;;16.00;55.00;;;;;;5084033;28;20170;-60
2020/12/30 05:03:29;;;;;;;4.97;4.32;;;16.00;55.00;;;;;;5083603;28;20561;-58
2020/12/30 05:05:59;;;;;;;5.20;4.70;;;16.00;55.00;;;;;;5084195;28;20214;-61
2020/12/30 05:08:25;;;;;;;5.72;4.85;;;16.00;55.00;;;;;;5066240;28;20223;-61
2020/12/30 05:10:52;;;;;;;5.10;4.60;;;16.00;55.10;;;;;;5066119;28;20616;-60
2020/12/30 05:13:19;;;;;;;4.93;4.43;;;16.00;55.00;;;;;;5083966;28;20178;-61
2020/12/30 05:15:44;;;;;;;4.97;4.57;;;16.00;55.00;;;;;;5083962;28;20173;-62
2020/12/30 05:18:10;;;;;;;5.25;4.75;;;16.00;55.00;;;;;;5084141;28;20174;-61
2020/12/30 05:20:35;;;;;;;4.57;4.18;;;16.00;55.00;;;;;;5083920;28;20167;-62
2020/12/30 05:23:05;;;;;;;4.00;3.70;;;15.90;55.00;;;;;;5083843;28;20244;-61
2020/12/30 05:25:35;;;;;;;5.25;4.60;;;15.90;55.00;;;;;;5065790;28;20244;-61
2020/12/30 05:28:04;;;;;;;4.57;4.18;;;16.00;55.00;;;;;;5066290;28;20174;-61
2020/12/30 05:30:30;;;;;;;4.85;4.45;;;15.90;55.00;;;;;;5083714;28;20170;-61
2020/12/30 05:32:56;;;;;;;4.45;3.90;;;15.90;55.00;;;;;;5083368;28;20223;-59
2020/12/30 05:35:22;;;;;;;4.82;4.18;;;15.90;55.00;;;;;;5083565;28;20170;-60
2020/12/30 05:37:47;;;;;;;4.75;4.35;;;15.90;55.10;;;;;;5083797;28;20257;-60
2020/12/30 05:40:24;;;;;;;5.03;4.55;;;15.90;55.00;;;;;;5065649;28;20716;-61
2020/12/30 05:42:50;;;;;;;4.68;4.28;;;15.90;55.00;;;;;;5083694;28;20502;-61
2020/12/30 05:45:20;;;;;;;4.15;3.85;;;15.90;55.00;;;;;;5083419;28;20620;-60
2020/12/30 05:47:46;;;;;;;4.45;4.05;;;15.90;55.10;;;;;;5083610;28;20182;-61
2020/12/30 05:50:12;;;;;;;4.70;4.30;;;15.90;55.00;;;;;;5068092;28;20923;-61
2020/12/30 05:52:38;;;;;;;4.35;3.95;;;15.90;55.10;;;;;;5087090;28;20457;-61
2020/12/30 05:55:07;;;;;;;4.78;4.38;;;15.90;55.10;;;;;;5086754;28;20627;-60
2020/12/30 05:57:34;;;;;;;4.85;4.45;;;15.80;55.00;;;;;;5086875;28;20182;-62
2020/12/30 06:00:12;;;;;;;4.10;3.70;;;15.80;55.10;;;;;;5086879;28;20969;-59
2020/12/30 06:02:41;;;;;;;3.85;3.55;;;15.90;55.30;;;;;;5086596;28;20181;-58
2020/12/30 06:05:08;;;;;;;4.20;3.80;;;15.90;55.40;;;;;;5087003;28;20181;-60
2020/12/30 06:07:36;;;;;;;4.38;3.55;;;16.00;55.50;;;;;;5086406;28;20653;-59
2020/12/30 06:10:02;;;;;;;3.88;3.55;;;16.30;55.50;;;;;;5086926;28;20227;-62
2020/12/30 06:12:28;;;;;;;3.90;3.58;;;16.50;55.20;;;;;;5086670;28;20524;-60
2020/12/30 06:14:54;;;;;;;4.03;3.47;;;16.90;54.80;;;;;;5068763;28;20176;-61
2020/12/30 06:17:26;;;;;;;4.00;3.20;;;17.10;54.10;;;;;;5086511;28;20224;-62
2020/12/30 06:19:52;;;;;;;3.40;3.10;;;17.60;53.30;;;;;;5068643;28;20482;-61
2020/12/30 06:22:19;;;;;;;3.53;3.22;;;17.80;52.70;;;;;;5086339;28;20648;-61
2020/12/30 06:24:45;;;;;;;3.30;3.00;;;18.10;52.30;;;;;;5068573;28;20193;-62
2020/12/30 06:27:11;;;;;;;3.53;3.22;;;18.40;52.00;;;;;;5068519;28;20686;-61
2020/12/30 06:29:36;;;;;;;3.78;3.38;;;18.50;51.60;;;;;;5068141;28;20654;-61
2020/12/30 06:32:02;;;;;;;3.25;3.00;;;18.70;51.40;;;;;;5086346;28;20170;-60
2020/12/30 06:34:28;;;;;;;3.33;3.03;;;18.70;51.40;;;;;;5086095;28;20177;-61
2020/12/30 06:36:53;;;;;;;3.33;3.03;;;18.80;51.20;;;;;;5067662;28;20261;-61
2020/12/30 06:39:23;;;;;;;3.30;3.00;;;18.80;51.20;;;;;;5067990;28;20224;-60
2020/12/30 06:42:00;;;;;;;3.20;3.00;;;18.80;51.20;;;;;;5086142;28;20170;-62
2020/12/30 06:44:51;;;;;;;3.22;2.92;;;18.80;51.40;;;;;;5086504;28;20173;-61
2020/12/30 06:47:17;;;;;;;2.97;2.78;;;18.80;51.40;;;;;;5081714;28;20251;-62
2020/12/30 06:49:42;;;;;;;2.85;2.65;;;18.80;51.50;;;;;;5086063;28;20922;-61
2020/12/30 06:52:27;;;;;;;3.35;3.05;;;18.70;51.50;;;;;;5085931;28;20988;-61
2020/12/30 06:54:53;;;;;;;3.05;2.85;;;18.60;51.60;;;;;;5085825;28;20503;-62
2020/12/30 06:57:48;;;;;;;3.03;2.75;;;18.70;51.80;;;;;;5085962;28;20231;-61
2020/12/30 07:00:32;;;;;;;2.97;2.67;;;18.60;51.80;;;;;;5068327;28;20654;-61
2020/12/30 07:03:14;;;;;;;2.85;2.60;;;18.60;51.80;;;;;;5085849;28;20174;-60
2020/12/30 07:05:40;;;;;;;3.22;2.92;;;18.60;51.90;;;;;;5067639;28;20237;-61
2020/12/30 07:08:07;;;;;;;2.80;2.60;;;18.60;52.00;;;;;;5085573;28;20207;-61
2020/12/30 07:10:43;;;;;;;2.50;2.30;;;18.50;52.20;;;;;;5085179;28;20178;-61
2020/12/30 07:13:08;;;;;;;3.00;2.80;;;18.40;52.40;;;;;;5068929;28;20169;-61
2020/12/30 07:15:34;;;;;;;2.95;2.72;;;18.30;52.50;;;;;;5085494;28;20185;-62
2020/12/30 07:18:02;;;;;;;2.65;2.45;;;18.10;52.60;;;;;;5085232;28;20216;-61
2020/12/30 07:20:28;;;;;;;3.08;2.88;;;18.10;52.80;;;;;;5085102;28;20289;-61
2020/12/30 07:22:53;;;;;;;2.70;2.50;;;18.00;52.90;;;;;;5085240;28;20623;-61
2020/12/30 07:25:21;;;;;;;3.05;2.85;;;18.10;53.00;;;;;;5067243;28;20239;-61
2020/12/30 07:27:46;;;;;;;2.58;2.38;;;18.00;53.60;;;;;;5067497;28;20748;-61
2020/12/30 07:30:12;;;;;;;3.03;2.78;;;18.00;53.00;;;;;;5085218;28;20174;-61
2020/12/30 07:32:37;;;;;;;3.00;2.80;;;18.00;53.00;;;;;;5066708;28;20177;-61
2020/12/30 07:35:05;;;;;;;3.25;2.95;;;18.00;53.00;;;;;;5084891;28;20182;-59
2020/12/30 07:37:31;;;;;;;2.63;2.42;;;18.00;53.00;;;;;;5066301;28;20212;-61
2020/12/30 07:39:56;;;;;;;2.75;2.55;;;18.10;53.00;;;;;;5085163;28;20674;-61
2020/12/30 07:42:23;;;;;;;3.10;2.80;;;18.20;52.90;;;;;;5085088;28;21015;-62
2020/12/30 07:44:53;;;;;;;2.95;2.70;;;18.10;52.90;;;;;;5085005;28;20166;-62
2020/12/30 07:47:19;;;;;;;2.85;2.58;;;18.10;52.90;;;;;;5084808;28;20235;-62
2020/12/30 07:49:45;;;;;;;2.83;2.63;;;18.00;53.00;;;;;;5084644;28;20178;-62
2020/12/30 07:52:10;;;;;;;2.63;2.42;;;18.00;53.10;;;;;;5084655;28;20193;-61
2020/12/30 07:54:36;;;;;;;2.53;2.38;;;17.90;53.30;;;;;;5084764;28;20170;-62
2020/12/30 07:57:02;;;;;;;2.53;2.33;;;17.80;53.40;;;;;;5066653;28;20269;-62
2020/12/30 07:59:28;;;;;;;2.53;2.33;;;17.80;53.50;;;;;;5084491;28;20521;-61
2020/12/30 08:01:56;;;;;;;2.70;2.50;;;17.70;53.50;;;;;;5084555;28;20705;-61
2020/12/30 08:04:22;;;;;;;2.83;2.55;;;17.80;53.50;;;;;;5084410;28;20166;-59
2020/12/30 08:06:47;;;;;;;2.53;2.33;;;17.70;53.50;;;;;;5084521;28;20569;-61
2020/12/30 08:09:13;;;;;;;2.67;2.47;;;17.80;53.50;;;;;;5084327;28;20231;-61
2020/12/30 08:11:49;;;;;;;2.70;2.50;;;17.90;53.40;;;;;;5083657;28;20274;-61
2020/12/30 08:14:15;;;;;;;3.35;2.40;;;17.90;53.40;;;;;;5066983;28;20176;-61
2020/12/30 08:17:01;;;;;;;3.03;2.75;;;17.90;53.40;;;;;;5084652;28;20173;-61
2020/12/30 08:19:52;;;;;;;2.80;2.60;;;17.80;53.40;;;;;;5084367;28;20177;-62
2020/12/30 08:22:25;;;;;;;3.45;2.50;;;17.80;53.40;;;;;;5074595;28;20200;-64
2020/12/30 08:24:51;;;;;;;2.40;2.20;;;17.70;53.70;;;;;;5083800;28;20987;-64
2020/12/30 08:27:21;;;;;;;2.95;2.75;;;17.60;53.80;;;;;;5084245;28;20213;-63
2020/12/30 08:29:47;;;;;;;2.97;2.70;;;17.60;53.90;;;;;;5066730;28;20242;-65
2020/12/30 08:32:32;;;;;;;3.33;3.03;;;17.50;53.90;;;;;;5084320;28;20645;-63
2020/12/30 08:35:03;;;;;;;2.60;2.40;;;17.60;53.90;;;;;;5084085;28;20649;-64
2020/12/30 08:37:29;;;;;;;3.45;2.33;;;17.60;53.90;;;;;;5084066;28;20180;-64
2020/12/30 08:40:02;;;;;;;3.20;2.80;;;17.60;53.80;;;;;;5083964;28;20174;-63
2020/12/30 08:42:52;;;;;;;3.38;2.35;;;17.70;53.70;;;;;;5067275;28;20169;-64
2020/12/30 08:45:34;;;;;;;2.38;2.17;;;17.70;53.70;;;;;;5084025;28;20572;-64
2020/12/30 08:48:14;;;;;;;3.00;2.70;;;17.70;53.70;;;;;;5066412;28;20185;-64
2020/12/30 08:50:39;;;;;;;2.65;2.50;;;17.60;53.80;;;;;;5065955;28;20518;-65
2020/12/30 08:53:05;;;;;;;2.88;2.67;;;17.50;53.90;;;;;;5066009;28;20170;-64
2020/12/30 08:55:31;;;;;;;2.60;2.40;;;17.50;54.00;;;;;;5084030;28;20177;-65
2020/12/30 08:57:57;;;;;;;2.40;2.20;;;17.40;54.10;;;;;;5083879;28;20170;-64
2020/12/30 09:00:26;;;;;;;3.10;2.47;;;17.40;54.10;;;;;;5083976;28;20627;-63
2020/12/30 09:02:53;;;;;;;3.35;2.30;;;17.40;54.10;;;;;;5083902;28;20217;-64
2020/12/30 09:05:28;;;;;;;2.53;2.33;;;17.40;54.10;;;;;;5084049;28;20190;-65
2020/12/30 09:07:54;;;;;;;2.97;2.70;;;17.50;54.10;;;;;;5084043;28;20180;-65
2020/12/30 09:10:19;;;;;;;2.35;2.15;;;17.50;54.00;;;;;;5065384;28;20174;-64
2020/12/30 09:12:45;;;;;;;3.22;2.67;;;17.50;53.90;;;;;;5083645;28;20170;-64
2020/12/30 09:15:12;;;;;;;2.80;2.60;;;17.50;54.00;;;;;;5083280;28;20227;-64
2020/12/30 09:17:37;;;;;;;2.60;2.40;;;17.40;54.00;;;;;;5064968;28;20192;-64
2020/12/30 09:20:10;;;;;;;2.67;2.47;;;17.40;54.00;;;;;;5083806;28;20181;-65
2020/12/30 09:22:36;;;;;;;2.67;2.47;;;17.30;54.00;;;;;;5083802;28;20742;-65
2020/12/30 09:25:02;;;;;;;2.33;2.13;;;17.30;54.00;;;;;;5086071;28;20276;-65
2020/12/30 09:27:32;;;;;;;2.88;2.67;;;17.30;54.20;;;;;;5069521;28;20284;-64
2020/12/30 09:30:14;;;;;;;2.53;2.30;;;17.20;54.20;;;;;;5087625;28;20189;-65
2020/12/30 09:32:41;;;;;;;2.60;2.40;;;17.30;54.30;;;;;;5087385;28;20170;-64
2020/12/30 09:35:10;;;;;;;2.55;2.40;;;17.30;54.20;;;;;;5069243;28;20678;-64
2020/12/30 09:37:35;;;;;;;3.30;3.00;;;17.30;54.10;;;;;;5087185;28;21012;-64
2020/12/30 09:40:11;;;;;;;2.42;2.33;;;17.40;54.00;;;;;;5087350;28;20178;-65
2020/12/30 09:42:38;;;;;;;2.60;2.40;;;17.30;54.00;;;;;;5087426;28;20220;-65
2020/12/30 09:45:05;;;;;;;2.40;2.20;;;17.30;54.10;;;;;;5087632;28;20170;-66
2020/12/30 09:47:31;;;;;;;2.97;2.70;;;17.30;54.10;;;;;;5069369;28;20202;-65
2020/12/30 09:49:56;;;;;;;4.00;3.00;;;17.20;54.20;;;;;;5087296;28;20181;-65
2020/12/30 09:52:22;;;;;;;5.22;3.47;;;17.20;54.70;;;;;;5086964;28;20636;-66
2020/12/30 09:54:47;;;;;;;5.20;3.13;;;17.20;55.10;;;;;;5087205;28;20230;-66
2020/12/30 09:57:13;;;;;;;5.57;3.20;;;17.20;55.20;;;;;;5086459;28;20655;-64
2020/12/30 09:59:38;;;;;;;3.28;2.92;;;17.10;55.20;;;;;;5086644;28;20181;-64
2020/12/30 10:02:04;;;;;;;4.15;3.25;;;17.20;55.10;;;;;;5086519;28;20181;-64
2020/12/30 10:04:29;;;;;;;3.92;2.83;;;17.20;55.10;;;;;;5085905;28;21091;-64
2020/12/30 10:06:55;;;;;;;4.55;3.10;;;17.30;55.00;;;;;;5086169;28;20260;-64
2020/12/30 10:09:21;;;;;;;3.33;3.05;;;17.30;54.90;;;;;;5086012;28;20256;-64
2020/12/30 10:11:46;;;;;;;4.15;3.10;;;17.30;54.80;;;;;;5086323;28;20177;-64
2020/12/30 10:14:12;;;;;;;5.10;2.60;;;17.30;54.80;;;;;;5086745;28;20351;-64
2020/12/30 10:16:37;;;;;;;3.28;2.97;;;17.30;54.80;;;;;;5086330;28;20205;-64
2020/12/30 10:19:03;;;;;;;4.00;2.85;;;17.20;54.70;;;;;;5086680;28;20231;-64
2020/12/30 10:21:31;;;;;;;4.40;2.83;;;17.10;54.80;;;;;;5086493;28;20180;-64
2020/12/30 10:23:58;;;;;;;3.10;2.85;;;17.20;54.90;;;;;;5085806;28;20182;-64
2020/12/30 10:26:23;;;;;;;4.03;2.83;;;17.10;55.00;;;;;;5068284;28;20209;-64
2020/12/30 10:28:49;;;;;;;2.72;2.53;;;17.20;55.00;;;;;;5068545;28;20174;-63
2020/12/30 10:31:15;;;;;;;3.90;2.78;;;17.10;54.90;;;;;;5068237;28;20178;-64
2020/12/30 10:33:41;;;;;;;2.95;2.75;;;17.20;54.90;;;;;;5086337;28;20189;-64
2020/12/30 10:36:10;;;;;;;3.17;2.60;;;17.20;54.80;;;;;;5085725;28;20279;-64
2020/12/30 10:38:35;;;;;;;2.72;2.50;;;17.20;54.80;;;;;;5086009;28;20177;-64
2020/12/30 10:41:01;;;;;;;4.10;3.15;;;17.20;54.70;;;;;;5085660;28;20178;-65
2020/12/30 10:43:26;;;;;;;6.10;3.17;;;17.20;54.60;;;;;;5067212;28;20174;-65
2020/12/30 10:45:52;;;;;;;3.30;2.72;;;17.20;54.60;;;;;;5067245;28;20270;-65
2020/12/30 10:48:17;;;;;;;5.82;3.10;;;17.20;54.70;;;;;;5085158;28;20435;-65
2020/12/30 10:50:43;;;;;;;3.45;3.15;;;17.20;54.90;;;;;;5085182;28;20178;-66
2020/12/30 10:53:08;;;;;;;3.38;2.70;;;17.10;55.00;;;;;;5085056;28;20178;-65
2020/12/30 10:55:34;;;;;;;3.42;2.42;;;17.20;55.00;;;;;;5084833;28;20220;-65
2020/12/30 10:58:00;;;;;;;3.15;2.50;;;17.20;55.00;;;;;;5085242;28;20227;-64
2020/12/30 11:00:25;;;;;;;3.60;2.70;;;17.20;55.00;;;;;;5066770;28;20170;-64
2020/12/30 11:02:51;;;;;;;2.85;2.55;;;17.20;54.90;;;;;;5066626;28;20178;-64
2020/12/30 11:05:16;;;;;;;2.70;2.50;;;17.20;54.90;;;;;;5084579;28;20170;-64
2020/12/30 11:07:42;;;;;;;2.65;2.45;;;17.30;55.00;;;;;;5081911;28;20192;-65
2020/12/30 11:10:08;;;;;;;3.08;2.53;;;17.30;55.00;;;;;;5084857;28;20177;-65
2020/12/30 11:12:36;;;;;;;2.90;2.42;;;17.30;55.00;;;;;;5066758;28;20520;-63
2020/12/30 11:15:03;;;;;;;2.60;2.40;;;17.30;55.00;;;;;;5084489;28;20239;-65
2020/12/30 11:17:28;;;;;;;2.70;2.50;;;17.20;55.00;;;;;;5084719;28;20573;-65
2020/12/30 11:19:55;;;;;;;2.85;2.63;;;17.20;55.00;;;;;;5084585;28;20185;-65
2020/12/30 11:22:20;;;;;;;2.78;2.58;;;17.10;55.10;;;;;;5084426;28;20619;-65
2020/12/30 11:24:46;;;;;;;3.97;2.58;;;17.10;55.20;;;;;;5084190;28;20203;-64
2020/12/30 11:27:11;;;;;;;2.80;2.53;;;17.20;55.30;;;;;;5084403;28;20969;-65
2020/12/30 11:29:37;;;;;;;2.40;2.20;;;17.20;55.20;;;;;;5084221;28;20635;-64
2020/12/30 11:32:02;;;;;;;3.55;2.42;;;17.30;55.30;;;;;;5084416;28;20201;-64
2020/12/30 11:34:28;;;;;;;2.60;2.40;;;17.30;55.20;;;;;;5084347;28;20177;-64
2020/12/30 11:36:53;;;;;;;3.45;2.97;;;17.30;55.20;;;;;;5084184;28;20189;-64
2020/12/30 11:39:19;;;;;;;2.28;2.08;;;17.20;55.20;;;;;;5084494;28;20174;-64
2020/12/30 11:41:49;;;;;;;4.25;2.72;;;17.20;55.30;;;;;;5066116;28;20269;-65
2020/12/30 11:44:14;;;;;;;2.47;2.28;;;17.20;55.20;;;;;;5081367;28;20169;-63
2020/12/30 11:46:40;;;;;;;2.90;2.60;;;17.20;55.40;;;;;;5083704;28;20208;-65
2020/12/30 11:49:05;;;;;;;2.45;2.20;;;17.10;55.30;;;;;;5084979;28;20240;-64
2020/12/30 11:51:31;;;;;;;2.60;2.40;;;17.20;55.50;;;;;;5084661;28;20268;-66
2020/12/30 11:53:56;;;;;;;3.10;2.05;;;17.20;55.60;;;;;;5066188;28;20200;-66
2020/12/30 11:56:22;;;;;;;2.72;2.50;;;17.20;55.60;;;;;;5084862;28;20178;-64
2020/12/30 11:58:48;;;;;;;2.50;2.30;;;17.20;55.60;;;;;;5085170;28;20170;-68
2020/12/30 12:01:13;;;;;;;2.20;2.10;;;17.20;55.50;;;;;;5067002;28;20174;-63
2020/12/30 12:03:39;;;;;;;2.80;2.45;;;17.20;55.50;;;;;;5084589;28;20619;-62
2020/12/30 12:06:05;;;;;;;2.70;2.40;;;17.20;55.60;;;;;;5084343;28;20204;-63
2020/12/30 12:08:30;;;;;;;2.65;2.30;;;17.20;55.50;;;;;;5084735;28;20189;-63
2020/12/30 12:10:56;;;;;;;2.60;2.20;;;17.30;55.40;;;;;;5084711;28;20177;-67
2020/12/30 12:13:21;;;;;;;2.90;2.70;;;17.40;55.30;;;;;;5084485;28;20305;-65
2020/12/30 12:15:47;;;;;;;2.63;2.28;;;17.60;55.20;;;;;;5084210;28;20295;-67
2020/12/30 12:18:12;;;;;;;2.50;2.30;;;17.80;54.90;;;;;;5084420;28;20181;-65
2020/12/30 12:20:38;;;;;;;3.50;2.50;;;18.00;54.40;;;;;;5084394;28;20199;-65
2020/12/30 12:23:04;;;;;;;3.40;2.58;;;18.30;54.00;;;;;;5083928;28;20208;-63
2020/12/30 12:25:30;;;;;;;3.17;2.67;;;18.60;53.60;;;;;;5084101;28;21021;-59
2020/12/30 12:27:55;;;;;;;3.95;2.10;;;18.80;53.10;;;;;;5066356;28;20994;-61
2020/12/30 12:30:21;;;;;;;2.42;2.22;;;19.10;52.60;;;;;;5084209;28;20177;-64
2020/12/30 12:32:46;;;;;;;2.50;2.30;;;19.30;52.20;;;;;;5084037;28;20200;-63
2020/12/30 12:35:12;;;;;;;3.85;2.08;;;19.30;52.10;;;;;;5083891;28;20189;-63
2020/12/30 12:37:37;;;;;;;3.55;2.25;;;19.50;52.00;;;;;;5066214;28;20231;-62
2020/12/30 12:40:04;;;;;;;2.50;1.85;;;19.50;51.90;;;;;;5084038;28;20180;-61
2020/12/30 12:42:29;;;;;;;2.80;1.88;;;19.50;51.90;;;;;;5066310;28;20264;-63
2020/12/30 12:44:55;;;;;;;2.15;1.63;;;19.50;51.90;;;;;;5084371;28;20253;-63
2020/12/30 12:47:21;;;;;;;3.20;1.88;;;19.50;52.00;;;;;;5083873;28;20233;-62